Time;durP1;ratioP1;P1;durP2;ratioP2;P2;SDS_P1;SDS_P2;PMS_P1;PMS_P2;Temp;Humidity;BMP_temperature;BMP_pressure;BME280_temperature;BME280_humidity;BME280_pressure;Samples;Min_cycle;Max_cycle;Signal;HPM_P1;HPM_P2
2023/03/22 00:01:20;;;;;;;2.30;1.40;;;16.00;29.40;;;;;;5030806;28;20500;-71
2023/03/22 00:03:47;;;;;;;2.07;1.37;;;16.10;29.90;;;;;;5031134;28;20439;-71
2023/03/22 00:06:13;;;;;;;1.90;1.20;;;16.10;29.70;;;;;;5031425;28;20502;-72
2023/03/22 00:08:39;;;;;;;2.40;1.40;;;16.30;29.70;;;;;;5032367;28;20455;-71
2023/03/22 00:11:06;;;;;;;2.00;1.23;;;16.20;29.90;;;;;;5033872;28;20434;-72
2023/03/22 00:13:33;;;;;;;2.83;1.80;;;16.30;29.80;;;;;;5028926;28;21359;-71
2023/03/22 00:15:58;;;;;;;2.00;1.23;;;16.20;29.90;;;;;;5033763;28;20908;-71
2023/03/22 00:18:25;;;;;;;2.00;1.20;;;16.40;28.80;;;;;;5032513;28;20451;-71
2023/03/22 00:20:54;;;;;;;1.90;1.10;;;16.50;28.50;;;;;;5033197;28;20235;-71
2023/03/22 00:23:20;;;;;;;2.00;1.20;;;16.50;28.90;;;;;;5030801;28;20427;-76
2023/03/22 00:25:46;;;;;;;2.10;1.30;;;16.60;28.30;;;;;;5030399;28;20426;-73
2023/03/22 00:28:13;;;;;;;2.00;1.23;;;16.40;28.40;;;;;;5031327;28;20499;-72
2023/03/22 00:30:39;;;;;;;2.07;1.20;;;16.50;28.30;;;;;;5029822;28;20465;-71
2023/03/22 00:33:05;;;;;;;2.20;1.20;;;16.40;28.50;;;;;;5033195;28;20418;-71
2023/03/22 00:35:31;;;;;;;2.00;1.10;;;16.40;28.30;;;;;;5033455;28;20185;-71
2023/03/22 00:38:04;;;;;;;2.10;1.20;;;16.40;28.20;;;;;;5033497;28;20483;-71
2023/03/22 00:40:31;;;;;;;2.00;1.13;;;16.40;28.50;;;;;;5028061;28;20469;-72
2023/03/22 00:42:57;;;;;;;2.07;1.17;;;16.40;28.40;;;;;;5033031;28;20414;-71
2023/03/22 00:45:22;;;;;;;2.20;1.40;;;16.30;28.80;;;;;;5032890;28;20497;-71
2023/03/22 00:47:48;;;;;;;2.20;1.30;;;16.30;28.80;;;;;;5033320;28;20513;-71
2023/03/22 00:50:14;;;;;;;2.00;1.10;;;16.20;28.70;;;;;;5026627;28;20188;-71
2023/03/22 00:52:39;;;;;;;2.20;1.43;;;16.20;28.60;;;;;;5031271;28;20575;-75
2023/03/22 00:55:05;;;;;;;1.90;1.10;;;15.70;30.10;;;;;;5031453;28;20278;-71
2023/03/22 00:57:31;;;;;;;2.00;1.17;;;15.80;29.60;;;;;;5033003;28;20197;-71
2023/03/22 00:59:57;;;;;;;2.13;1.20;;;15.60;30.00;;;;;;5027146;28;20473;-76
2023/03/22 01:02:28;;;;;;;2.27;1.37;;;15.70;29.50;;;;;;5032121;28;20622;-72
2023/03/22 01:04:54;;;;;;;2.00;1.10;;;15.70;30.10;;;;;;5032043;28;20440;-71
2023/03/22 01:07:22;;;;;;;3.90;2.50;;;15.70;29.00;;;;;;5032883;28;20429;-71
2023/03/22 01:09:49;;;;;;;2.20;1.37;;;15.70;29.10;;;;;;5031342;28;20468;-71
2023/03/22 01:12:15;;;;;;;2.20;1.43;;;15.70;29.50;;;;;;5029954;28;20501;-73
2023/03/22 01:14:41;;;;;;;2.10;1.23;;;15.50;29.40;;;;;;5023942;28;20419;-71
2023/03/22 01:17:07;;;;;;;2.10;1.30;;;15.30;30.30;;;;;;5026204;28;20432;-71
2023/03/22 01:19:34;;;;;;;2.00;1.13;;;15.30;30.00;;;;;;5030425;28;20458;-72
2023/03/22 01:22:00;;;;;;;2.40;1.40;;;15.50;29.40;;;;;;5032231;28;20861;-71
2023/03/22 01:24:26;;;;;;;2.00;1.10;;;15.40;29.80;;;;;;5032359;28;20439;-71
2023/03/22 01:26:51;;;;;;;2.07;1.20;;;15.40;29.90;;;;;;5030380;28;20466;-74
2023/03/22 01:29:17;;;;;;;2.07;1.20;;;15.20;30.20;;;;;;5027346;28;20328;-71
2023/03/22 01:31:43;;;;;;;2.20;1.47;;;15.10;30.20;;;;;;5032106;28;20577;-71
2023/03/22 01:34:10;;;;;;;2.10;1.30;;;15.00;30.60;;;;;;5031054;28;20523;-71
2023/03/22 01:36:35;;;;;;;2.10;1.30;;;15.00;30.90;;;;;;5024717;28;20440;-71
2023/03/22 01:39:02;;;;;;;2.10;1.20;;;14.70;32.20;;;;;;5030274;28;20439;-75
2023/03/22 01:41:28;;;;;;;2.10;1.30;;;14.70;31.80;;;;;;5024834;28;20295;-71
2023/03/22 01:44:08;;;;;;;2.10;1.20;;;14.70;31.90;;;;;;5031577;28;20415;-73
2023/03/22 01:46:34;;;;;;;2.10;1.30;;;14.70;31.70;;;;;;5028502;28;20264;-71
2023/03/22 01:49:02;;;;;;;2.03;1.20;;;14.50;32.10;;;;;;5030951;28;20572;-74
2023/03/22 01:51:28;;;;;;;2.20;1.33;;;14.40;32.80;;;;;;5031518;28;20220;-71
2023/03/22 01:53:58;;;;;;;2.30;1.40;;;14.30;33.90;;;;;;5031508;28;20451;-71
2023/03/22 01:56:28;;;;;;;2.00;1.20;;;14.20;33.50;;;;;;5029555;28;20555;-73
2023/03/22 01:58:54;;;;;;;2.10;1.20;;;14.20;33.80;;;;;;5028949;28;20489;-72
2023/03/22 02:01:21;;;;;;;2.07;1.30;;;14.10;33.10;;;;;;5031636;28;20467;-71
2023/03/22 02:04:01;;;;;;;2.00;1.20;;;14.30;32.80;;;;;;5030812;28;20475;-71
2023/03/22 02:06:28;;;;;;;2.00;1.10;;;14.10;33.00;;;;;;5031293;28;20443;-71
2023/03/22 02:08:57;;;;;;;2.00;1.20;;;14.00;33.00;;;;;;5029475;28;20439;-73
2023/03/22 02:11:33;;;;;;;2.10;1.30;;;14.30;33.70;;;;;;5031375;28;20439;-71
2023/03/22 02:14:21;;;;;;;2.30;1.40;;;14.20;32.10;;;;;;5031393;28;20497;-71
2023/03/22 02:16:49;;;;;;;2.10;1.30;;;14.40;31.70;;;;;;5029880;28;20943;-71
2023/03/22 02:19:41;;;;;;;2.00;1.20;;;14.40;31.70;;;;;;5029417;28;20439;-71
2023/03/22 02:22:15;;;;;;;4.57;2.07;;;14.50;31.60;;;;;;5030088;28;20825;-73
2023/03/22 02:25:03;;;;;;;2.00;1.23;;;14.30;31.80;;;;;;5021848;28;20580;-71
2023/03/22 02:27:51;;;;;;;2.00;1.27;;;14.20;32.00;;;;;;5026878;28;20522;-74
2023/03/22 02:30:57;;;;;;;2.00;1.20;;;13.40;34.40;;;;;;5031119;28;20431;-71
2023/03/22 02:33:34;;;;;;;2.50;1.40;;;13.20;35.30;;;;;;5031178;28;20394;-71
2023/03/22 02:36:21;;;;;;;2.00;1.20;;;13.20;35.40;;;;;;5027414;28;20882;-72
2023/03/22 02:39:04;;;;;;;1.93;1.20;;;13.30;35.40;;;;;;5027257;28;20442;-73
2023/03/22 02:41:46;;;;;;;2.00;1.20;;;13.60;34.00;;;;;;5031295;28;20463;-74
2023/03/22 02:44:40;;;;;;;2.00;1.30;;;13.60;33.60;;;;;;5031163;28;20429;-71
2023/03/22 02:47:47;;;;;;;1.90;1.20;;;13.50;33.60;;;;;;5027495;28;20810;-71
2023/03/22 02:50:21;;;;;;;1.97;1.17;;;13.30;34.60;;;;;;4969184;28;20830;-74
2023/03/22 02:52:56;;;;;;;2.00;1.30;;;13.20;35.40;;;;;;4950499;29;20427;-71
2023/03/22 02:55:27;;;;;;;3.07;1.67;;;13.50;34.40;;;;;;4953745;28;20520;-71
2023/03/22 02:58:06;;;;;;;1.90;1.10;;;13.40;33.80;;;;;;4966923;28;20469;-71
2023/03/22 03:00:34;;;;;;;2.00;1.20;;;13.40;33.60;;;;;;4955829;28;20982;-73
2023/03/22 03:03:17;;;;;;;2.00;1.10;;;13.20;34.70;;;;;;4964325;28;20423;-72
2023/03/22 03:05:47;;;;;;;2.00;1.20;;;13.10;34.70;;;;;;4954016;28;20420;-71
2023/03/22 03:08:15;;;;;;;2.00;1.20;;;13.20;34.70;;;;;;4967580;28;20981;-70
2023/03/22 03:10:42;;;;;;;2.10;1.40;;;13.20;36.50;;;;;;4950367;28;20525;-71
2023/03/22 03:13:13;;;;;;;2.20;1.33;;;13.30;35.40;;;;;;4950485;29;20907;-71
2023/03/22 03:15:44;;;;;;;2.00;1.30;;;12.90;36.00;;;;;;4951332;28;20447;-77
2023/03/22 03:18:25;;;;;;;2.00;1.20;;;12.40;36.70;;;;;;4962877;28;20528;-70
2023/03/22 03:20:51;;;;;;;1.93;1.20;;;12.40;36.70;;;;;;4961878;28;20477;-71
2023/03/22 03:23:48;;;;;;;1.90;1.10;;;12.90;36.30;;;;;;4961314;28;20827;-71
2023/03/22 03:26:29;;;;;;;1.90;1.10;;;12.40;37.10;;;;;;5009878;28;20250;-70
2023/03/22 03:29:22;;;;;;;1.90;1.10;;;12.40;36.80;;;;;;5032718;28;20463;-71
2023/03/22 03:32:18;;;;;;;2.10;1.30;;;12.60;37.20;;;;;;5016625;28;20962;-71
2023/03/22 03:35:00;;;;;;;1.93;1.20;;;12.50;36.20;;;;;;5033198;28;20470;-71
2023/03/22 03:37:43;;;;;;;1.90;1.10;;;12.50;35.90;;;;;;5034517;28;20411;-70
2023/03/22 03:40:13;;;;;;;1.97;1.10;;;12.30;37.40;;;;;;5030840;28;20191;-71
2023/03/22 03:42:51;;;;;;;2.35;1.30;;;12.00;37.40;;;;;;5033893;28;20429;-72
2023/03/22 03:45:18;;;;;;;1.90;1.10;;;12.10;37.20;;;;;;5034250;28;20505;-71
2023/03/22 03:47:46;;;;;;;2.15;1.35;;;12.30;37.00;;;;;;5033285;28;20411;-74
2023/03/22 03:50:14;;;;;;;1.90;1.20;;;12.40;36.70;;;;;;5034038;28;20529;-71
2023/03/22 03:52:41;;;;;;;1.90;1.20;;;12.10;37.30;;;;;;5033747;28;20453;-70
2023/03/22 03:55:08;;;;;;;1.90;1.20;;;12.40;38.70;;;;;;5034137;28;20220;-73
2023/03/22 03:57:33;;;;;;;2.00;1.20;;;12.20;37.10;;;;;;5031640;28;20435;-74
2023/03/22 03:59:59;;;;;;;2.10;1.33;;;12.30;36.30;;;;;;5028695;28;20454;-69
2023/03/22 04:02:24;;;;;;;1.90;1.17;;;12.30;36.50;;;;;;5032811;28;20287;-72
2023/03/22 04:04:50;;;;;;;1.90;1.20;;;12.30;36.80;;;;;;5034099;28;20172;-68
2023/03/22 04:07:15;;;;;;;2.57;1.50;;;12.00;36.90;;;;;;5033080;28;20181;-72
2023/03/22 04:09:41;;;;;;;1.90;1.20;;;12.00;38.00;;;;;;5032269;28;20176;-71
2023/03/22 04:12:10;;;;;;;2.10;1.40;;;12.60;37.30;;;;;;5033921;28;20280;-70
2023/03/22 04:14:35;;;;;;;2.20;1.35;;;11.80;38.20;;;;;;5032537;28;20189;-72
2023/03/22 04:17:01;;;;;;;2.00;1.30;;;11.90;37.90;;;;;;5033777;28;20520;-70
2023/03/22 04:19:27;;;;;;;1.90;1.20;;;11.70;38.40;;;;;;5026514;28;20823;-70
2023/03/22 04:21:52;;;;;;;1.90;1.20;;;11.70;39.10;;;;;;5033164;28;20274;-70
2023/03/22 04:24:20;;;;;;;1.97;1.20;;;11.60;38.90;;;;;;5033216;28;20168;-70
2023/03/22 04:26:46;;;;;;;1.90;1.15;;;11.60;38.70;;;;;;5032841;28;20181;-73
2023/03/22 04:29:12;;;;;;;1.90;1.10;;;11.70;38.50;;;;;;5029682;28;20193;-75
2023/03/22 04:31:38;;;;;;;2.15;1.40;;;11.90;37.50;;;;;;5030990;28;20455;-70
2023/03/22 04:34:04;;;;;;;2.00;1.20;;;12.10;37.30;;;;;;5032288;28;20444;-70
2023/03/22 04:36:38;;;;;;;1.80;1.10;;;11.90;37.50;;;;;;5031983;28;20320;-73
2023/03/22 04:39:05;;;;;;;2.55;1.30;;;11.90;37.30;;;;;;5032294;28;20163;-70
2023/03/22 04:41:32;;;;;;;2.10;1.20;;;12.20;37.40;;;;;;5028349;28;20207;-70
2023/03/22 04:44:01;;;;;;;1.80;1.10;;;11.80;38.20;;;;;;5031607;28;20542;-70
2023/03/22 04:46:31;;;;;;;2.00;1.20;;;11.50;39.30;;;;;;5033343;28;20165;-70
2023/03/22 04:48:56;;;;;;;1.90;1.10;;;11.80;37.80;;;;;;5030093;28;20238;-73
2023/03/22 04:51:22;;;;;;;2.00;1.20;;;11.40;38.80;;;;;;5027800;28;20223;-70
2023/03/22 04:53:48;;;;;;;1.80;1.10;;;11.50;39.10;;;;;;5032181;28;20172;-70
2023/03/22 04:56:14;;;;;;;1.90;1.10;;;11.20;40.70;;;;;;5032130;28;20188;-71
2023/03/22 04:58:41;;;;;;;1.98;1.10;;;11.10;40.30;;;;;;5032085;28;20242;-71
2023/03/22 05:01:11;;;;;;;2.20;1.30;;;11.20;39.70;;;;;;5027844;28;20220;-74
2023/03/22 05:03:37;;;;;;;2.00;1.30;;;11.20;40.20;;;;;;5029004;28;20191;-71
2023/03/22 05:06:06;;;;;;;2.10;1.30;;;11.20;40.30;;;;;;5030941;28;20549;-73
2023/03/22 05:08:32;;;;;;;2.00;1.10;;;11.20;39.80;;;;;;5031595;28;20662;-71
2023/03/22 05:11:04;;;;;;;1.90;1.10;;;11.30;39.60;;;;;;5031764;28;20215;-71
2023/03/22 05:13:30;;;;;;;2.20;1.38;;;11.30;39.50;;;;;;5029092;28;20194;-72
2023/03/22 05:15:55;;;;;;;3.17;2.00;;;11.30;39.70;;;;;;5031699;28;20206;-71
2023/03/22 05:18:25;;;;;;;2.10;1.20;;;11.20;40.10;;;;;;5032370;28;20639;-72
2023/03/22 05:20:54;;;;;;;2.05;1.20;;;11.20;40.40;;;;;;5032162;28;20683;-71
2023/03/22 05:23:21;;;;;;;2.10;1.30;;;11.30;40.20;;;;;;5031310;28;20227;-71
2023/03/22 05:25:47;;;;;;;1.90;1.10;;;11.60;40.30;;;;;;5031291;28;20255;-70
2023/03/22 05:28:14;;;;;;;2.10;1.30;;;11.90;39.50;;;;;;5030244;28;20184;-70
2023/03/22 05:30:41;;;;;;;2.00;1.13;;;11.30;40.00;;;;;;5032242;28;20258;-71
2023/03/22 05:33:08;;;;;;;1.95;1.20;;;12.70;41.00;;;;;;5032033;28;20184;-71
2023/03/22 05:35:36;;;;;;;2.00;1.10;;;11.50;39.50;;;;;;5032075;28;20200;-73
2023/03/22 05:38:02;;;;;;;2.00;1.17;;;11.70;38.90;;;;;;5031229;28;20185;-71
2023/03/22 05:40:28;;;;;;;2.00;1.13;;;11.90;38.10;;;;;;5032079;28;20675;-73
2023/03/22 05:42:55;;;;;;;2.10;1.23;;;11.90;38.20;;;;;;5031971;28;20267;-74
2023/03/22 05:45:21;;;;;;;2.10;1.23;;;12.20;37.50;;;;;;5027455;28;20479;-71
2023/03/22 05:47:47;;;;;;;2.00;1.10;;;12.30;36.80;;;;;;5031638;28;20189;-71
2023/03/22 05:50:17;;;;;;;1.95;1.10;;;12.20;36.90;;;;;;5030842;28;20179;-71
2023/03/22 05:52:43;;;;;;;2.00;1.20;;;12.10;37.10;;;;;;5030239;28;20250;-71
2023/03/22 05:55:16;;;;;;;2.00;1.20;;;12.10;36.90;;;;;;5029918;28;20176;-71
2023/03/22 05:57:42;;;;;;;2.10;1.20;;;12.00;37.10;;;;;;5023174;28;20534;-71
2023/03/22 06:00:12;;;;;;;2.00;1.20;;;12.10;36.90;;;;;;5031312;28;20169;-71
2023/03/22 06:02:46;;;;;;;2.30;1.30;;;12.20;36.90;;;;;;5044419;22;20764;-67
2023/03/22 06:05:13;;;;;;;1.90;1.13;;;12.30;36.40;;;;;;5010096;28;20177;-67
2023/03/22 06:07:40;;;;;;;1.98;1.10;;;12.50;36.10;;;;;;5007591;28;20993;-68
2023/03/22 06:10:07;;;;;;;2.05;1.25;;;12.40;36.60;;;;;;5012236;28;20586;-67
2023/03/22 06:12:33;;;;;;;2.00;1.10;;;12.20;37.50;;;;;;5009982;28;20236;-68
2023/03/22 06:14:59;;;;;;;2.00;1.13;;;12.00;37.90;;;;;;5012138;28;20578;-68
2023/03/22 06:17:25;;;;;;;1.90;1.35;;;11.50;38.50;;;;;;5009053;28;20436;-68
2023/03/22 06:19:51;;;;;;;2.10;1.37;;;11.20;40.20;;;;;;4999116;28;20578;-67
2023/03/22 06:22:17;;;;;;;2.07;1.23;;;11.10;39.50;;;;;;4992330;28;20239;-67
2023/03/22 06:24:43;;;;;;;1.92;1.10;;;11.10;39.70;;;;;;4992059;28;20448;-67
2023/03/22 06:27:08;;;;;;;2.20;1.40;;;11.10;40.20;;;;;;4995921;28;20528;-67
2023/03/22 06:29:34;;;;;;;2.10;1.30;;;11.10;39.50;;;;;;5007494;28;20428;-67
2023/03/22 06:32:00;;;;;;;1.90;1.10;;;11.20;39.30;;;;;;5018958;28;20424;-67
2023/03/22 06:34:26;;;;;;;2.07;1.33;;;10.80;40.30;;;;;;5010955;28;20440;-67
2023/03/22 06:36:52;;;;;;;1.97;1.20;;;10.90;40.30;;;;;;5006900;28;20440;-67
2023/03/22 06:39:19;;;;;;;1.93;1.13;;;11.00;40.10;;;;;;5008869;28;20476;-67
2023/03/22 06:41:45;;;;;;;2.27;1.30;;;11.10;39.90;;;;;;5011844;28;20193;-67
2023/03/22 06:44:11;;;;;;;2.10;1.30;;;11.30;39.70;;;;;;5010135;28;20907;-68
2023/03/22 06:46:36;;;;;;;2.00;1.20;;;11.60;39.30;;;;;;4991389;28;20420;-67
2023/03/22 06:49:03;;;;;;;1.80;1.10;;;11.00;39.70;;;;;;4992961;28;20405;-67
2023/03/22 06:51:28;;;;;;;2.05;1.30;;;11.10;42.60;;;;;;5005516;28;20610;-67
2023/03/22 06:53:54;;;;;;;2.00;1.30;;;10.40;45.40;;;;;;5012842;28;20256;-67
2023/03/22 06:56:19;;;;;;;2.23;1.47;;;10.40;44.40;;;;;;5007670;28;20173;-67
2023/03/22 06:58:45;;;;;;;3.00;1.50;;;10.50;43.80;;;;;;5018577;28;20263;-67
2023/03/22 07:01:11;;;;;;;1.80;1.13;;;10.20;44.30;;;;;;5019631;28;20248;-68
2023/03/22 07:03:36;;;;;;;1.80;1.10;;;10.20;44.80;;;;;;5014927;28;20811;-70
2023/03/22 07:06:04;;;;;;;2.93;1.90;;;10.30;44.40;;;;;;5012043;28;20174;-69
2023/03/22 07:08:30;;;;;;;1.90;1.20;;;10.80;42.50;;;;;;5000040;28;20250;-70
2023/03/22 07:10:55;;;;;;;2.30;1.40;;;11.00;41.20;;;;;;4999810;28;20405;-70
2023/03/22 07:13:21;;;;;;;1.80;1.10;;;11.10;41.10;;;;;;5000810;28;20432;-70
2023/03/22 07:15:47;;;;;;;1.90;1.23;;;11.10;41.00;;;;;;5017067;28;20205;-70
2023/03/22 07:18:12;;;;;;;1.83;1.30;;;11.50;42.00;;;;;;5017746;28;20412;-70
2023/03/22 07:20:40;;;;;;;1.90;1.27;;;11.20;40.60;;;;;;5013838;28;20208;-68
2023/03/22 07:23:06;;;;;;;2.13;1.30;;;11.90;39.20;;;;;;5014727;28;20200;-70
2023/03/22 07:25:32;;;;;;;1.80;1.20;;;12.60;36.80;;;;;;5012626;28;20471;-70
2023/03/22 07:27:59;;;;;;;2.00;1.30;;;12.90;35.00;;;;;;5026465;28;20424;-70
2023/03/22 07:30:25;;;;;;;1.80;1.10;;;13.20;36.00;;;;;;5017150;28;20192;-70
2023/03/22 07:32:50;;;;;;;1.80;1.10;;;12.20;36.80;;;;;;5004464;28;20448;-69
2023/03/22 07:35:17;;;;;;;2.00;1.23;;;12.20;38.60;;;;;;5014207;28;20177;-69
2023/03/22 07:37:43;;;;;;;2.07;1.33;;;12.80;36.80;;;;;;5011683;28;20198;-68
2023/03/22 07:40:10;;;;;;;1.70;1.10;;;13.00;36.20;;;;;;5023530;28;21013;-69
2023/03/22 07:42:35;;;;;;;1.80;1.23;;;12.70;37.40;;;;;;5017896;28;20464;-70
2023/03/22 07:45:01;;;;;;;1.90;1.30;;;12.50;38.50;;;;;;5018557;28;20459;-69
2023/03/22 07:47:26;;;;;;;2.90;1.70;;;12.30;38.10;;;;;;5019395;28;20729;-70
2023/03/22 07:49:52;;;;;;;2.20;1.30;;;12.50;38.90;;;;;;5019235;28;20229;-70
2023/03/22 07:52:18;;;;;;;1.80;1.20;;;12.00;39.00;;;;;;5020057;28;20202;-70
2023/03/22 07:54:43;;;;;;;1.90;1.20;;;12.60;38.40;;;;;;5021074;28;20253;-68
2023/03/22 07:57:09;;;;;;;1.80;1.20;;;13.00;36.40;;;;;;5026552;28;20665;-70
2023/03/22 07:59:35;;;;;;;1.80;1.20;;;13.90;34.80;;;;;;5020234;28;20181;-70
2023/03/22 08:02:00;;;;;;;2.40;1.60;;;13.40;35.50;;;;;;5011063;28;20546;-70
2023/03/22 08:04:26;;;;;;;2.00;1.43;;;13.70;34.50;;;;;;5018848;28;20304;-68
2023/03/22 08:06:57;;;;;;;1.90;1.30;;;13.30;35.40;;;;;;5014507;28;20202;-69
2023/03/22 08:09:24;;;;;;;1.80;1.20;;;13.40;35.20;;;;;;5018713;28;20419;-69
2023/03/22 08:11:50;;;;;;;1.93;1.27;;;11.80;33.90;;;;;;5018325;28;20844;-66
2023/03/22 08:14:16;;;;;;;2.00;1.37;;;13.20;35.30;;;;;;5012847;28;20449;-66
2023/03/22 08:16:43;;;;;;;1.80;1.20;;;13.50;34.80;;;;;;5014243;28;20517;-66
2023/03/22 08:19:11;;;;;;;1.90;1.30;;;14.00;33.40;;;;;;5015991;28;20419;-68
2023/03/22 08:21:37;;;;;;;1.90;1.30;;;14.40;32.80;;;;;;5016158;28;20485;-66
2023/03/22 08:24:03;;;;;;;1.90;1.30;;;14.80;32.80;;;;;;5015009;28;20495;-68
2023/03/22 08:26:29;;;;;;;1.77;1.10;;;14.40;31.70;;;;;;5012554;28;20271;-76
2023/03/22 08:28:55;;;;;;;1.90;1.20;;;14.00;33.40;;;;;;5017030;28;20423;-72
2023/03/22 08:31:21;;;;;;;1.90;1.23;;;14.20;32.80;;;;;;5006182;28;20595;-72
2023/03/22 08:33:48;;;;;;;2.17;1.50;;;14.90;31.80;;;;;;5012035;28;20964;-72
2023/03/22 08:36:21;;;;;;;1.80;1.10;;;14.90;31.20;;;;;;5014265;28;20418;-72
2023/03/22 08:38:48;;;;;;;2.00;1.33;;;15.00;31.10;;;;;;5010906;28;20424;-72
2023/03/22 08:41:14;;;;;;;1.80;1.20;;;15.00;31.10;;;;;;5013980;28;20456;-72
2023/03/22 08:43:41;;;;;;;2.10;1.30;;;14.70;31.10;;;;;;5014032;28;20436;-72
2023/03/22 08:46:07;;;;;;;1.97;1.37;;;15.00;30.70;;;;;;5011750;28;20470;-72
2023/03/22 08:48:36;;;;;;;1.90;1.23;;;15.60;29.90;;;;;;5016054;28;20431;-72
2023/03/22 08:51:03;;;;;;;2.17;1.37;;;15.60;30.00;;;;;;5009845;28;20434;-66
2023/03/22 08:53:29;;;;;;;2.00;1.30;;;16.20;28.90;;;;;;5010541;28;20469;-67
2023/03/22 08:55:56;;;;;;;1.90;1.20;;;16.70;28.20;;;;;;5006420;28;20797;-69
2023/03/22 08:58:23;;;;;;;1.90;1.20;;;16.70;27.80;;;;;;5009580;28;20173;-67
2023/03/22 09:00:49;;;;;;;1.93;1.30;;;16.00;29.20;;;;;;5008869;28;20456;-67
2023/03/22 09:03:15;;;;;;;1.90;1.30;;;16.30;28.90;;;;;;5011100;28;20835;-66
2023/03/22 09:05:41;;;;;;;2.00;1.30;;;15.70;29.50;;;;;;5007828;28;20437;-66
2023/03/22 09:08:07;;;;;;;1.90;1.27;;;15.20;31.40;;;;;;5009431;28;20434;-67
2023/03/22 09:10:33;;;;;;;2.10;1.40;;;15.60;31.00;;;;;;5005954;28;20198;-67
2023/03/22 09:12:59;;;;;;;1.90;1.30;;;15.80;29.60;;;;;;5007169;28;20844;-70
2023/03/22 09:15:25;;;;;;;1.90;1.20;;;16.20;29.40;;;;;;5011542;28;20429;-67
2023/03/22 09:17:50;;;;;;;1.90;1.30;;;16.30;29.30;;;;;;5008268;28;20430;-67
2023/03/22 09:20:17;;;;;;;2.07;1.30;;;16.30;29.00;;;;;;5011675;28;20267;-67
2023/03/22 09:22:43;;;;;;;1.90;1.20;;;16.40;28.00;;;;;;5010212;28;20201;-67
2023/03/22 09:25:09;;;;;;;2.00;1.37;;;16.00;28.90;;;;;;5009644;28;20440;-69
2023/03/22 09:27:35;;;;;;;1.97;1.30;;;15.40;29.80;;;;;;5005632;28;20506;-66
2023/03/22 09:30:00;;;;;;;1.97;1.30;;;15.90;29.50;;;;;;5004134;28;20410;-68
2023/03/22 09:32:26;;;;;;;2.13;1.30;;;16.60;27.70;;;;;;5011273;28;20436;-70
2023/03/22 09:34:52;;;;;;;1.97;1.20;;;16.70;27.80;;;;;;5009179;28;20183;-66
2023/03/22 09:37:19;;;;;;;2.40;1.30;;;16.70;28.10;;;;;;4996225;28;20187;-67
2023/03/22 09:39:44;;;;;;;1.90;1.10;;;16.80;26.30;;;;;;4993389;28;20591;-67
2023/03/22 09:42:30;;;;;;;2.07;1.40;;;16.60;27.10;;;;;;5000918;28;20464;-69
2023/03/22 09:44:56;;;;;;;1.97;1.20;;;16.50;27.30;;;;;;5011982;28;20319;-70
2023/03/22 09:47:33;;;;;;;2.00;1.20;;;16.90;27.00;;;;;;5000189;28;20429;-67
2023/03/22 09:50:11;;;;;;;2.07;1.30;;;17.00;26.30;;;;;;5004943;28;20430;-70
2023/03/22 09:52:37;;;;;;;2.00;1.20;;;17.00;25.50;;;;;;5003825;28;21031;-67
2023/03/22 09:55:12;;;;;;;2.07;1.20;;;17.10;25.60;;;;;;5024957;28;20496;-67
2023/03/22 09:57:38;;;;;;;2.03;1.30;;;17.30;25.50;;;;;;5011789;28;20584;-67
2023/03/22 10:00:42;;;;;;;2.30;1.40;;;17.30;25.40;;;;;;5010517;28;20492;-69
2023/03/22 10:03:26;;;;;;;2.13;1.30;;;17.50;25.20;;;;;;4931173;29;20221;-67
2023/03/22 10:05:57;;;;;;;2.10;1.20;;;18.10;24.50;;;;;;4927980;29;20478;-67
2023/03/22 10:08:54;;;;;;;2.20;1.30;;;18.30;24.00;;;;;;4930994;29;20439;-70
2023/03/22 10:11:43;;;;;;;2.23;1.20;;;18.60;24.00;;;;;;4924072;29;20451;-67
2023/03/22 10:14:31;;;;;;;2.20;1.17;;;18.40;23.40;;;;;;4932376;29;20447;-67
2023/03/22 10:17:04;;;;;;;2.20;1.20;;;18.60;22.70;;;;;;4932639;29;20422;-70
2023/03/22 10:19:54;;;;;;;2.40;1.40;;;18.50;23.00;;;;;;4932474;29;20412;-67
2023/03/22 10:22:25;;;;;;;2.30;1.30;;;18.40;23.50;;;;;;4932387;29;20592;-68
2023/03/22 10:24:52;;;;;;;3.63;1.57;;;18.50;23.10;;;;;;4931101;29;20415;-67
2023/03/22 10:27:20;;;;;;;2.30;1.20;;;18.90;23.10;;;;;;4927981;29;20447;-68
2023/03/22 10:29:54;;;;;;;2.57;1.30;;;19.10;22.40;;;;;;4932451;29;20455;-69
2023/03/22 10:32:29;;;;;;;3.30;1.37;;;19.00;22.40;;;;;;4932006;29;20865;-68
2023/03/22 10:34:55;;;;;;;2.60;1.33;;;19.60;21.10;;;;;;4932391;29;20424;-67
2023/03/22 10:37:25;;;;;;;2.53;1.10;;;19.30;21.70;;;;;;4931476;29;20946;-67
2023/03/22 10:39:54;;;;;;;2.50;1.20;;;19.50;21.50;;;;;;4982310;28;20424;-67
2023/03/22 10:42:25;;;;;;;3.00;1.40;;;19.90;21.80;;;;;;5010923;28;20479;-67
2023/03/22 10:45:02;;;;;;;2.67;1.30;;;19.30;22.30;;;;;;5002767;28;20431;-67
2023/03/22 10:47:44;;;;;;;2.70;1.30;;;18.80;21.70;;;;;;5012860;28;20401;-69
2023/03/22 10:50:39;;;;;;;2.77;1.30;;;18.60;22.30;;;;;;5008472;28;20953;-70
2023/03/22 10:53:09;;;;;;;2.97;1.30;;;19.30;22.10;;;;;;5008762;28;20448;-70
2023/03/22 10:55:42;;;;;;;2.80;1.20;;;19.30;21.60;;;;;;5015580;28;20404;-70
2023/03/22 10:58:20;;;;;;;2.90;1.30;;;19.40;21.30;;;;;;5015174;28;20421;-69
2023/03/22 11:00:49;;;;;;;2.97;1.30;;;19.20;20.80;;;;;;5009966;28;20512;-70
2023/03/22 11:03:27;;;;;;;3.20;1.33;;;19.10;21.20;;;;;;5013602;28;20941;-71
2023/03/22 11:05:59;;;;;;;3.10;1.20;;;20.10;18.90;;;;;;5019726;28;20409;-71
2023/03/22 11:08:25;;;;;;;3.10;1.20;;;21.50;18.50;;;;;;5017428;28;20410;-71
2023/03/22 11:10:57;;;;;;;3.20;1.23;;;22.80;16.50;;;;;;5016711;28;20498;-69
2023/03/22 11:13:24;;;;;;;3.10;1.20;;;22.70;16.50;;;;;;4987858;28;20662;-71
2023/03/22 11:16:01;;;;;;;3.17;1.20;;;21.50;18.20;;;;;;5019664;28;20806;-71
2023/03/22 11:18:31;;;;;;;3.27;1.30;;;22.80;17.00;;;;;;5000178;28;20448;-71
2023/03/22 11:21:06;;;;;;;3.40;1.30;;;23.90;15.80;;;;;;5002881;28;20981;-71
2023/03/22 11:23:33;;;;;;;3.17;1.13;;;23.60;16.50;;;;;;5001574;28;20522;-71
2023/03/22 11:26:13;;;;;;;3.40;1.23;;;23.70;15.80;;;;;;4998936;28;20429;-70
2023/03/22 11:28:49;;;;;;;3.50;1.40;;;22.50;17.30;;;;;;4998330;28;20652;-71
2023/03/22 11:31:19;;;;;;;3.23;1.20;;;21.50;18.10;;;;;;4983944;28;20851;-70
2023/03/22 11:33:57;;;;;;;3.70;1.17;;;21.20;18.50;;;;;;5009532;28;20438;-70
2023/03/22 11:36:24;;;;;;;3.63;1.37;;;21.60;18.20;;;;;;5006714;28;20526;-69
2023/03/22 11:38:59;;;;;;;3.40;1.30;;;22.90;17.20;;;;;;5008151;28;20442;-69
2023/03/22 11:41:27;;;;;;;3.40;1.30;;;24.60;15.50;;;;;;5015344;28;20489;-69
2023/03/22 11:43:56;;;;;;;3.70;1.30;;;24.40;15.30;;;;;;5002936;28;20461;-69
2023/03/22 11:46:22;;;;;;;3.57;1.20;;;23.80;16.10;;;;;;5012361;28;20491;-69
2023/03/22 11:48:51;;;;;;;3.50;1.20;;;24.50;15.50;;;;;;5014971;28;20903;-69
2023/03/22 11:51:36;;;;;;;4.77;1.60;;;23.50;16.70;;;;;;5014758;28;20830;-69
2023/03/22 11:54:24;;;;;;;4.00;1.40;;;24.60;14.90;;;;;;5022764;28;20467;-70
2023/03/22 11:56:53;;;;;;;3.70;1.13;;;24.80;14.70;;;;;;5014715;28;20463;-71
2023/03/22 11:59:23;;;;;;;3.80;1.23;;;25.60;14.20;;;;;;5023231;28;20419;-71
2023/03/22 12:01:56;;;;;;;4.23;1.30;;;24.90;15.00;;;;;;5019850;28;20455;-71
2023/03/22 12:04:27;;;;;;;4.00;1.27;;;23.90;15.70;;;;;;5047224;22;20518;-75
2023/03/22 12:06:56;;;;;;;3.90;1.20;;;23.90;15.80;;;;;;5026889;28;20948;-73
2023/03/22 12:09:43;;;;;;;3.97;1.20;;;25.00;14.60;;;;;;5031209;28;20510;-75
2023/03/22 12:12:20;;;;;;;4.40;1.30;;;23.20;16.10;;;;;;5029379;28;20458;-75
2023/03/22 12:15:01;;;;;;;4.40;1.40;;;23.70;15.40;;;;;;5010481;28;20416;-76
2023/03/22 12:17:35;;;;;;;4.20;1.30;;;23.10;16.50;;;;;;5011749;28;20513;-76
2023/03/22 12:20:18;;;;;;;4.30;1.30;;;23.20;15.90;;;;;;4995891;28;20446;-76
2023/03/22 12:22:51;;;;;;;4.10;1.33;;;23.80;16.40;;;;;;5013491;28;20717;-75
2023/03/22 12:25:22;;;;;;;3.80;1.20;;;22.90;17.50;;;;;;5012690;28;20800;-76
2023/03/22 12:27:58;;;;;;;3.90;1.20;;;22.00;17.30;;;;;;5010382;28;20424;-76
2023/03/22 12:30:30;;;;;;;4.30;1.40;;;22.30;16.90;;;;;;5008805;28;20424;-75
2023/03/22 12:32:58;;;;;;;4.00;1.30;;;22.40;16.30;;;;;;5014184;28;20451;-74
2023/03/22 12:35:29;;;;;;;4.23;1.33;;;22.40;16.40;;;;;;5005719;28;20436;-74
2023/03/22 12:37:57;;;;;;;4.30;1.40;;;22.20;16.30;;;;;;5009224;28;20416;-74
2023/03/22 12:40:34;;;;;;;4.13;1.20;;;23.60;14.70;;;;;;4998459;28;20567;-75
2023/03/22 12:43:10;;;;;;;4.30;1.20;;;25.00;13.10;;;;;;5011761;28;20504;-75
2023/03/22 12:45:46;;;;;;;4.30;1.20;;;26.00;12.80;;;;;;5007508;28;20954;-77
2023/03/22 12:48:15;;;;;;;4.43;1.23;;;25.10;11.80;;;;;;5012928;28;20420;-77
2023/03/22 12:50:47;;;;;;;3.77;1.10;;;25.20;12.70;;;;;;5008445;28;20459;-76
2023/03/22 12:53:16;;;;;;;3.80;1.20;;;25.10;11.50;;;;;;5014070;28;20506;-75
2023/03/22 12:55:45;;;;;;;3.80;1.10;;;24.20;12.20;;;;;;4998883;28;20506;-75
2023/03/22 12:58:14;;;;;;;3.90;1.10;;;23.30;13.80;;;;;;4986892;28;20420;-77
2023/03/22 13:00:52;;;;;;;3.90;1.30;;;23.50;13.60;;;;;;5014291;28;20452;-75
2023/03/22 13:03:37;;;;;;;3.70;1.10;;;25.10;12.10;;;;;;5002851;28;20472;-76